Date,TemperatureHighF,TemperatureAvgF,TemperatureLowF,DewpointHighF,DewpointAvgF,DewpointLowF,HumidityHigh,HumidityAvg,HumidityLow,PressureMaxIn,PressureMinIn,WindSpeedMaxMPH,WindSpeedAvgMPH,GustSpeedMaxMPH,PrecipitationSumIn
2013-2-1,65.1,49.9,39.3,46.0,41.8,38.0,96,77,40,30.24,30.15,3,0,10,0.01
2013-2-2,58.0,47.3,41.3,50.0,44.0,39.0,95,88,75,30.31,30.24,1,0,4,0.00
2013-2-3,58.0,47.2,41.3,50.0,44.9,40.0,96,91,72,30.27,30.17,2,0,5,0.00
2013-2-4,59.1,46.6,40.0,51.0,43.8,39.0,97,90,66,30.18,30.09,3,0,4,0.01
2013-2-5,55.5,44.5,38.3,49.0,42.5,37.0,97,92,77,30.20,30.07,4,0,9,0.01
2013-2-6,54.6,42.3,34.8,44.0,38.7,34.0,96,88,59,30.23,30.13,3,0,7,0.01
2013-2-7,50.8,43.2,35.5,46.0,40.6,34.0,100,91,68,30.19,30.02,5,0,9,0.19
2013-2-8,51.8,40.0,32.0,42.0,35.5,31.0,96,85,58,30.05,29.97,3,0,8,0.00
2013-2-9,57.8,41.1,30.5,37.0,31.6,23.0,95,73,28,30.13,30.04,3,0,8,0.00
2013-2-10,59.9,46.5,35.5,44.0,35.5,28.0,90,68,38,30.14,30.05,4,0,9,0.00
2013-2-11,63.3,48.7,40.4,41.0,34.8,29.0,86,61,30,30.25,30.12,5,0,7,0.00
2013-2-12,58.6,45.3,35.7,45.0,39.3,34.0,94,81,48,30.38,30.25,4,0,9,0.00
2013-2-13,62.2,47.8,38.4,48.0,42.0,37.0,96,82,49,30.36,30.23,6,0,6,0.00
2013-2-14,70.2,58.2,44.4,48.0,41.6,33.0,94,57,31,30.26,30.18,3,0,11,0.00
2013-2-15,70.8,59.1,47.3,49.0,38.2,29.0,89,50,28,30.27,30.21,6,0,9,0.00
2013-2-16,68.7,52.6,45.1,51.0,44.4,40.0,91,75,48,30.26,30.06,2,0,7,0.00
2013-2-17,61.8,46.8,36.5,47.0,39.8,35.0,95,78,53,30.06,30.00,4,0,8,0.00
2013-2-18,49.7,41.5,34.1,44.0,38.1,32.0,95,88,75,30.05,29.94,6,0,7,0.00
2013-2-19,46.0,38.6,30.6,41.0,35.5,29.0,95,89,67,29.98,29.76,6,0,11,0.20
2013-2-20,55.2,39.3,29.0,41.0,34.3,28.0,96,84,49,30.09,29.89,3,0,11,0.01
2013-2-21,57.5,43.1,32.1,39.0,34.2,28.0,95,75,35,30.21,30.09,7,0,12,0.01
2013-2-22,60.8,46.3,34.7,44.0,38.6,33.0,95,77,41,30.28,30.19,3,0,9,0.00
2013-2-23,55.6,44.2,35.9,41.0,35.3,30.0,93,74,40,30.29,30.19,4,0,9,0.00
2013-2-24,64.4,46.5,33.7,38.0,29.9,16.0,83,58,16,30.30,30.19,5,0,11,0.00
2013-2-25,62.9,46.0,35.8,43.0,36.0,31.0,94,71,35,30.28,30.19,5,0,9,0.00
2013-2-26,68.0,49.7,34.3,38.0,29.6,20.0,91,53,18,30.25,30.17,5,0,10,0.00
2013-2-27,66.5,50.7,38.1,46.0,37.2,30.0,85,62,31,30.39,30.23,4,0,6,0.00
2013-2-28,66.8,53.6,45.2,54.0,48.6,44.0,95,84,58,30.46,30.39,4,0,8,0.01